createdAt,value
2023-02-09T00:02:45.348Z,56.50
2023-02-09T00:05:47.662Z,56.40
2023-02-09T00:08:50.221Z,56.40
2023-02-09T00:12:10.782Z,56.50
2023-02-09T00:15:12.964Z,57.10
2023-02-09T00:18:15.108Z,56.50
2023-02-09T00:21:17.473Z,56.50
2023-02-09T00:24:19.716Z,56.50
2023-02-09T00:27:21.882Z,56.40
2023-02-09T00:30:24.419Z,56.40
2023-02-09T00:33:26.698Z,56.40
2023-02-09T00:36:29.356Z,56.40
2023-02-09T00:39:31.508Z,56.50
2023-02-09T00:42:33.783Z,56.40
2023-02-09T00:45:36.339Z,56.40
2023-02-09T00:48:38.559Z,56.40
2023-02-09T00:51:41.178Z,56.40
2023-02-09T00:54:43.431Z,56.40
2023-02-09T00:57:45.665Z,56.30
2023-02-09T01:00:49.153Z,56.30
2023-02-09T01:03:51.259Z,56.30
2023-02-09T01:06:53.433Z,56.30
2023-02-09T01:09:55.960Z,56.30
2023-02-09T01:12:58.372Z,56.30
2023-02-09T01:16:00.569Z,56.30
2023-02-09T01:19:04.306Z,56.40
2023-02-09T01:22:06.790Z,56.40
2023-02-09T01:25:09.501Z,56.40
2023-02-09T01:28:11.706Z,56.40
2023-02-09T01:31:28.086Z,56.40
2023-02-09T01:34:30.357Z,56.40
2023-02-09T01:37:34.852Z,56.40
2023-02-09T01:40:37.124Z,56.30
2023-02-09T01:44:27.727Z,56.30
2023-02-09T01:47:30.000Z,56.40
2023-02-09T01:50:39.635Z,56.40
2023-02-09T01:53:43.115Z,56.40
2023-02-09T01:56:50.245Z,56.40
2023-02-09T01:59:58.411Z,56.50
2023-02-09T02:03:06.165Z,56.50
2023-02-09T02:06:14.480Z,56.50
2023-02-09T02:09:17.921Z,56.50
2023-02-09T02:12:20.279Z,56.50
2023-02-09T02:15:29.969Z,56.50
2023-02-09T02:19:06.863Z,56.50
2023-02-09T02:22:46.462Z,56.60
2023-02-09T02:26:26.683Z,56.60
2023-02-09T02:29:47.477Z,56.50
2023-02-09T02:32:59.964Z,56.60
2023-02-09T02:36:07.715Z,56.60
2023-02-09T02:39:15.827Z,56.50
2023-02-09T02:42:51.808Z,56.50
2023-02-09T02:46:06.080Z,56.50
2023-02-09T02:49:15.285Z,56.50
2023-02-09T02:52:17.792Z,56.50
2023-02-09T02:55:21.848Z,56.40
2023-02-09T02:58:25.872Z,56.40
2023-02-09T03:01:34.411Z,56.50
2023-02-09T03:04:38.848Z,56.40
2023-02-09T03:07:41.123Z,56.40
2023-02-09T03:10:44.100Z,56.40
2023-02-09T03:14:11.130Z,56.40
2023-02-09T03:17:55.492Z,56.40
2023-02-09T03:21:11.683Z,56.40
2023-02-09T03:24:25.368Z,56.30
2023-02-09T03:27:43.482Z,56.20
2023-02-09T03:30:50.112Z,56.10
2023-02-09T03:33:52.633Z,56.10
2023-02-09T03:36:57.545Z,56.20
2023-02-09T03:39:59.753Z,56.20
2023-02-09T03:43:01.879Z,56.20
2023-02-09T03:46:04.142Z,56.20
2023-02-09T03:49:06.302Z,56.30
2023-02-09T03:52:12.435Z,56.20
2023-02-09T03:55:14.657Z,56.40
2023-02-09T03:58:16.803Z,56.30
2023-02-09T04:01:19.151Z,56.30
2023-02-09T04:04:22.328Z,56.30
2023-02-09T04:07:24.566Z,56.30
2023-02-09T04:10:27.070Z,56.30
2023-02-09T04:13:29.332Z,56.10
2023-02-09T04:16:31.660Z,56.00
2023-02-09T04:19:33.863Z,56.00
2023-02-09T04:22:36.083Z,56.00
2023-02-09T04:25:38.420Z,56.00
2023-02-09T04:28:40.744Z,56.00
2023-02-09T04:31:43.155Z,56.00
2023-02-09T04:34:45.340Z,56.00
2023-02-09T04:37:47.444Z,56.00
2023-02-09T04:40:51.647Z,56.10
2023-02-09T04:43:53.838Z,56.10
2023-02-09T04:46:55.947Z,56.10
2023-02-09T04:49:58.152Z,56.10
2023-02-09T04:53:00.790Z,56.10
2023-02-09T04:56:03.131Z,56.10
2023-02-09T04:59:23.727Z,56.20
2023-02-09T05:02:25.941Z,56.20
2023-02-09T05:05:28.313Z,56.20
2023-02-09T05:08:30.881Z,56.20
2023-02-09T05:11:33.085Z,56.20
2023-02-09T05:14:35.276Z,56.20
2023-02-09T05:17:37.568Z,56.20
2023-02-09T05:20:40.155Z,56.20
2023-02-09T05:23:42.574Z,56.20
2023-02-09T05:26:44.740Z,56.20
2023-02-09T05:29:46.880Z,56.10
2023-02-09T05:32:49.026Z,56.10
2023-02-09T05:35:52.435Z,56.00
2023-02-09T05:38:54.621Z,56.10
2023-02-09T05:42:15.284Z,56.10
2023-02-09T05:45:17.503Z,56.10
2023-02-09T05:48:19.729Z,56.00
2023-02-09T05:51:21.920Z,56.00
2023-02-09T05:54:24.057Z,55.70
2023-02-09T05:57:26.137Z,55.40
2023-02-09T06:00:29.923Z,55.10
2023-02-09T06:03:32.571Z,55.10
2023-02-09T06:06:35.031Z,55.00
2023-02-09T06:09:37.215Z,55.10
2023-02-09T06:12:41.067Z,55.10
2023-02-09T06:15:43.581Z,55.60
2023-02-09T06:18:46.015Z,55.00
2023-02-09T06:21:48.343Z,55.00
2023-02-09T06:24:50.588Z,55.00
2023-02-09T06:27:52.804Z,55.00
2023-02-09T06:30:55.105Z,55.10
2023-02-09T06:33:57.310Z,55.10
2023-02-09T06:36:59.577Z,55.20
2023-02-09T06:40:01.780Z,55.20
2023-02-09T06:43:04.230Z,55.20
2023-02-09T06:46:08.221Z,55.30
2023-02-09T06:49:10.586Z,55.20
2023-02-09T06:52:12.937Z,55.30
2023-02-09T06:55:15.252Z,55.20
2023-02-09T06:58:17.510Z,55.20
2023-02-09T07:01:19.787Z,55.20
2023-02-09T07:04:22.528Z,55.30
2023-02-09T07:07:25.579Z,55.30
2023-02-09T07:10:27.801Z,55.30
2023-02-09T07:13:32.105Z,55.40
2023-02-09T07:16:34.331Z,55.50
2023-02-09T07:19:36.543Z,55.60
2023-02-09T07:22:38.748Z,55.60
2023-02-09T07:25:40.934Z,55.70
2023-02-09T07:28:43.419Z,55.70
2023-02-09T07:31:45.721Z,55.70
2023-02-09T07:34:47.997Z,55.80
2023-02-09T07:37:50.178Z,55.80
2023-02-09T07:40:52.537Z,55.90
2023-02-09T07:43:56.530Z,55.60
2023-02-09T07:46:58.730Z,55.60
2023-02-09T07:50:01.048Z,55.50
2023-02-09T07:53:03.391Z,55.50
2023-02-09T07:56:06.185Z,56.10
2023-02-09T07:59:10.693Z,55.50
2023-02-09T08:02:24.530Z,55.60
2023-02-09T08:05:51.942Z,55.60
2023-02-09T08:08:54.356Z,55.70
2023-02-09T08:11:59.850Z,55.80
2023-02-09T08:15:02.571Z,55.90
2023-02-09T08:18:12.811Z,55.90
2023-02-09T08:21:16.559Z,56.00
2023-02-09T08:24:21.554Z,56.10
2023-02-09T08:27:23.957Z,56.00
2023-02-09T08:33:43.940Z,56.10
2023-02-09T08:36:46.087Z,56.10
2023-02-09T08:39:48.287Z,56.30
2023-02-09T08:42:50.366Z,56.40
2023-02-09T08:45:52.627Z,56.40
2023-02-09T08:48:55.198Z,57.00
2023-02-09T08:51:57.370Z,56.40
2023-02-09T08:54:59.575Z,56.30
2023-02-09T08:58:01.696Z,56.30
2023-02-09T09:01:05.616Z,56.20
2023-02-09T09:04:08.505Z,56.20
2023-02-09T09:07:10.689Z,56.10
2023-02-09T09:10:13.053Z,56.00
2023-02-09T09:13:15.222Z,55.90
2023-02-09T09:16:20.294Z,55.80
2023-02-09T09:19:22.399Z,55.80
2023-02-09T09:22:24.497Z,55.70
2023-02-09T09:25:26.760Z,55.60
2023-02-09T09:28:29.739Z,55.40
2023-02-09T09:31:33.771Z,55.40
2023-02-09T09:34:36.119Z,55.30
2023-02-09T09:37:38.289Z,55.40
2023-02-09T09:40:42.347Z,55.40
2023-02-09T09:43:44.785Z,55.30
2023-02-09T09:46:50.935Z,55.20
2023-02-09T09:49:53.150Z,54.90
2023-02-09T09:53:07.108Z,54.90
2023-02-09T09:56:10.360Z,55.10
2023-02-09T09:59:28.305Z,55.10
2023-02-09T10:02:33.907Z,55.00
2023-02-09T10:05:39.838Z,55.00
2023-02-09T10:08:52.080Z,55.10
2023-02-09T10:12:12.963Z,55.10
2023-02-09T10:15:25.846Z,55.10
2023-02-09T10:18:30.289Z,55.00
2023-02-09T10:21:36.281Z,55.10
2023-02-09T10:24:40.014Z,55.10
2023-02-09T10:27:47.112Z,55.00
2023-02-09T10:30:53.096Z,54.90
2023-02-09T10:34:03.476Z,55.00
2023-02-09T10:37:05.513Z,55.10
2023-02-09T10:40:22.720Z,55.30
2023-02-09T10:43:32.356Z,55.10
2023-02-09T10:46:34.670Z,55.10
2023-02-09T10:49:40.021Z,55.10
2023-02-09T10:52:56.362Z,55.10
2023-02-09T10:56:04.804Z,55.10
2023-02-09T10:59:18.087Z,55.10
2023-02-09T11:02:41.964Z,55.00
2023-02-09T11:05:46.848Z,55.00
2023-02-09T11:09:17.072Z,55.00
2023-02-09T11:12:22.825Z,55.10
2023-02-09T11:15:29.122Z,55.10
2023-02-09T11:18:34.487Z,55.00
2023-02-09T11:21:36.703Z,55.00
2023-02-09T11:24:50.749Z,55.10
2023-02-09T11:28:04.712Z,55.00
2023-02-09T11:31:32.181Z,55.00
2023-02-09T11:34:56.079Z,55.00
2023-02-09T11:38:07.833Z,55.00
2023-02-09T11:41:33.877Z,55.00
2023-02-09T11:44:48.129Z,55.00
2023-02-09T11:47:56.376Z,55.10
2023-02-09T11:51:07.707Z,55.10
2023-02-09T11:54:23.376Z,55.00
2023-02-09T11:57:36.177Z,55.10
2023-02-09T12:00:56.283Z,55.10
2023-02-09T12:04:07.433Z,55.10
2023-02-09T12:07:35.001Z,55.00
2023-02-09T12:11:13.574Z,55.10
2023-02-09T12:14:18.350Z,55.20
2023-02-09T12:17:20.491Z,55.10
2023-02-09T12:20:27.342Z,55.20
2023-02-09T12:23:52.150Z,55.20
2023-02-09T12:26:56.184Z,55.20
2023-02-09T12:29:59.235Z,55.20
2023-02-09T12:33:25.471Z,55.20
2023-02-09T12:36:33.455Z,55.30
2023-02-09T12:39:35.636Z,55.30
2023-02-09T12:42:50.617Z,55.20
2023-02-09T12:46:11.492Z,55.30
2023-02-09T12:49:20.919Z,55.30
2023-02-09T12:52:26.229Z,55.30
2023-02-09T12:55:28.501Z,55.30
2023-02-09T12:58:45.732Z,55.40
2023-02-09T13:02:06.176Z,55.50
2023-02-09T13:05:16.677Z,55.50
2023-02-09T13:08:27.352Z,55.60
2023-02-09T13:11:51.653Z,55.60
2023-02-09T13:14:54.060Z,55.60
2023-02-09T13:17:56.208Z,55.70
2023-02-09T13:21:35.368Z,55.60
2023-02-09T13:24:41.707Z,55.60
2023-02-09T13:27:49.986Z,55.50
2023-02-09T13:30:52.795Z,55.50
2023-02-09T13:34:00.539Z,55.50
2023-02-09T13:37:23.848Z,55.50
2023-02-09T13:40:30.315Z,55.40
2023-02-09T13:43:35.691Z,55.50
2023-02-09T13:46:39.419Z,55.50
2023-02-09T13:49:42.229Z,55.50
2023-02-09T13:52:44.618Z,55.60
2023-02-09T13:55:49.439Z,55.50
2023-02-09T13:58:52.472Z,55.50
2023-02-09T14:01:55.345Z,55.50
2023-02-09T14:05:00.802Z,55.50
2023-02-09T14:08:04.034Z,55.50
2023-02-09T14:11:10.546Z,55.80
2023-02-09T14:14:52.840Z,55.40
2023-02-09T14:17:56.369Z,55.50
2023-02-09T14:21:45.698Z,55.50
2023-02-09T14:24:47.822Z,55.60
2023-02-09T14:27:50.088Z,55.60
2023-02-09T14:30:52.336Z,55.60
2023-02-09T14:33:56.647Z,55.60
2023-02-09T14:37:05.006Z,55.60
2023-02-09T14:40:07.128Z,55.70
2023-02-09T14:43:09.419Z,55.70
2023-02-09T14:46:11.706Z,55.80
2023-02-09T14:49:13.969Z,55.70
2023-02-09T14:52:16.219Z,55.80
2023-02-09T14:55:25.414Z,55.80
2023-02-09T14:58:33.805Z,55.90
2023-02-09T15:01:35.982Z,56.00
2023-02-09T15:04:38.274Z,56.00
2023-02-09T15:07:44.777Z,56.00
2023-02-09T15:10:53.568Z,56.10
2023-02-09T15:14:04.037Z,56.00
2023-02-09T15:17:16.093Z,56.10
2023-02-09T15:20:26.992Z,56.10
2023-02-09T15:23:29.081Z,56.10
2023-02-09T15:26:35.533Z,56.10
2023-02-09T15:29:37.828Z,56.20
2023-02-09T15:32:39.991Z,56.20
2023-02-09T15:35:42.192Z,56.20
2023-02-09T15:38:44.390Z,56.30
2023-02-09T15:42:05.301Z,56.30
2023-02-09T15:45:32.078Z,56.30
2023-02-09T15:48:34.301Z,56.30
2023-02-09T15:51:38.834Z,56.40
2023-02-09T15:54:41.246Z,56.40
2023-02-09T15:57:43.540Z,56.50
2023-02-09T16:00:46.096Z,56.40
2023-02-09T16:03:49.181Z,56.50
2023-02-09T16:06:53.939Z,56.60
2023-02-09T16:09:56.297Z,56.50
2023-02-09T16:12:58.566Z,56.60
2023-02-09T16:16:15.036Z,56.70
2023-02-09T16:19:19.856Z,56.70
2023-02-09T16:22:25.163Z,56.70
2023-02-09T16:25:29.301Z,56.60
2023-02-09T16:28:31.562Z,56.60
2023-02-09T16:31:34.293Z,56.60
2023-02-09T16:34:36.621Z,56.60
2023-02-09T16:37:38.850Z,56.70
2023-02-09T16:40:40.976Z,56.70
2023-02-09T16:43:43.101Z,56.80
2023-02-09T16:46:48.060Z,56.80
2023-02-09T16:50:01.645Z,56.80
2023-02-09T16:53:46.555Z,56.80
2023-02-09T16:56:54.172Z,56.80
2023-02-09T16:59:57.046Z,56.90
2023-02-09T17:03:15.962Z,56.90
2023-02-09T17:06:21.376Z,56.90
2023-02-09T17:09:23.480Z,57.00
2023-02-09T17:12:26.640Z,57.60
2023-02-09T17:15:32.028Z,57.00
2023-02-09T17:18:40.750Z,57.00
2023-02-09T17:21:43.221Z,57.00
2023-02-09T17:24:47.336Z,57.10
2023-02-09T17:27:49.505Z,57.10
2023-02-09T17:30:55.441Z,57.20
2023-02-09T17:34:00.951Z,57.10
2023-02-09T17:37:03.095Z,57.20
2023-02-09T17:40:05.696Z,57.10
2023-02-09T17:43:10.048Z,57.10
2023-02-09T17:46:13.867Z,57.20
2023-02-09T17:49:16.103Z,57.20
2023-02-09T17:52:20.091Z,57.20
2023-02-09T17:55:31.686Z,57.20
2023-02-09T17:58:33.844Z,57.30
2023-02-09T18:01:49.646Z,57.20
2023-02-09T18:04:51.806Z,57.30
2023-02-09T18:07:54.417Z,57.20
2023-02-09T18:10:58.831Z,57.30
2023-02-09T18:14:01.145Z,57.30
2023-02-09T18:17:03.538Z,57.40
2023-02-09T18:20:06.354Z,57.30
2023-02-09T18:23:12.794Z,57.40
2023-02-09T18:26:15.029Z,57.40
2023-02-09T18:29:23.326Z,57.40
2023-02-09T18:32:25.765Z,57.50
2023-02-09T18:35:44.596Z,57.50
2023-02-09T18:38:48.317Z,57.50
2023-02-09T18:41:54.934Z,57.60
2023-02-09T18:44:57.454Z,57.50
2023-02-09T18:48:00.205Z,57.50
2023-02-09T18:51:02.478Z,57.60
2023-02-09T18:54:05.748Z,57.60
2023-02-09T18:57:08.219Z,57.60
2023-02-09T19:00:13.543Z,57.60
2023-02-09T19:03:17.799Z,57.70
2023-02-09T19:06:21.457Z,57.70
2023-02-09T19:09:23.602Z,57.70
2023-02-09T19:12:27.988Z,57.70
2023-02-09T19:15:32.240Z,57.80
2023-02-09T19:18:34.624Z,57.70
2023-02-09T19:21:36.820Z,57.70
2023-02-09T19:24:39.352Z,57.70
2023-02-09T19:27:41.539Z,57.80
2023-02-09T19:30:44.012Z,57.80
2023-02-09T19:33:46.243Z,57.90
2023-02-09T19:36:49.400Z,57.90
2023-02-09T19:40:03.761Z,57.90
2023-02-09T19:43:06.305Z,58.00
2023-02-09T19:46:10.809Z,58.00
2023-02-09T19:49:13.025Z,58.00
2023-02-09T19:52:15.208Z,58.10
2023-02-09T19:55:17.493Z,58.00
2023-02-09T19:58:23.610Z,58.00
2023-02-09T20:01:27.021Z,58.00
2023-02-09T20:04:29.288Z,58.10
2023-02-09T20:07:31.550Z,58.10
2023-02-09T20:10:34.033Z,58.00
2023-02-09T20:13:37.245Z,58.00
2023-02-09T20:16:39.663Z,58.10
2023-02-09T20:19:41.908Z,58.10
2023-02-09T20:22:44.110Z,58.00
2023-02-09T20:25:46.830Z,58.00
2023-02-09T20:28:49.656Z,58.00
2023-02-09T20:31:51.976Z,58.00
2023-02-09T20:34:54.737Z,58.00
2023-02-09T20:37:56.968Z,58.00
2023-02-09T20:40:59.524Z,58.00
2023-02-09T20:44:20.247Z,58.00
2023-02-09T20:47:22.584Z,58.00
2023-02-09T20:50:24.850Z,58.00
2023-02-09T20:53:27.216Z,58.00
2023-02-09T20:56:29.642Z,58.00
2023-02-09T20:59:31.890Z,58.00
2023-02-09T21:02:34.167Z,58.00
2023-02-09T21:05:36.440Z,58.00
2023-02-09T21:08:39.038Z,58.00
2023-02-09T21:11:42.261Z,58.00
2023-02-09T21:14:46.581Z,58.00
2023-02-09T21:17:49.234Z,58.00
2023-02-09T21:20:54.814Z,58.10
2023-02-09T21:23:57.088Z,58.10
2023-02-09T21:27:00.854Z,58.10
2023-02-09T21:30:03.228Z,58.10
2023-02-09T21:33:05.634Z,58.10
2023-02-09T21:36:08.510Z,58.10
2023-02-09T21:39:10.729Z,58.10
2023-02-09T21:42:30.753Z,58.20
2023-02-09T21:45:33.167Z,58.20
2023-02-09T21:48:35.374Z,58.20
2023-02-09T21:51:37.615Z,58.20
2023-02-09T21:54:40.015Z,58.20
2023-02-09T21:57:42.145Z,58.20
2023-02-09T22:00:44.347Z,58.20
2023-02-09T22:03:57.466Z,58.20
2023-02-09T22:07:00.173Z,58.20
2023-02-09T22:10:02.638Z,58.20
2023-02-09T22:13:08.607Z,58.20
2023-02-09T22:16:17.158Z,58.20
2023-02-09T22:19:19.322Z,58.30
2023-02-09T22:22:21.634Z,58.20
2023-02-09T22:25:23.800Z,58.20
2023-02-09T22:28:27.087Z,58.20
2023-02-09T22:31:29.357Z,58.20
2023-02-09T22:34:31.520Z,58.20
2023-02-09T22:37:33.753Z,58.20
2023-02-09T22:40:36.124Z,58.20
2023-02-09T22:43:38.226Z,58.20
2023-02-09T22:46:42.156Z,58.30
2023-02-09T22:49:46.730Z,58.30
2023-02-09T22:52:49.278Z,58.30
2023-02-09T22:55:51.428Z,58.30
2023-02-09T22:58:54.801Z,58.30
2023-02-09T23:01:56.971Z,58.40
2023-02-09T23:04:59.068Z,58.40
2023-02-09T23:08:01.174Z,58.30
2023-02-09T23:11:13.163Z,58.40
2023-02-09T23:14:15.503Z,58.40
2023-02-09T23:17:17.714Z,58.40
2023-02-09T23:20:19.963Z,58.30
2023-02-09T23:23:22.190Z,58.40
2023-02-09T23:26:24.965Z,58.40
2023-02-09T23:29:28.186Z,58.40
2023-02-09T23:32:30.541Z,58.40
2023-02-09T23:35:32.764Z,58.40
2023-02-09T23:38:35.789Z,58.40
2023-02-09T23:41:37.911Z,58.40
2023-02-09T23:44:40.163Z,58.50
2023-02-09T23:47:42.374Z,58.40
2023-02-09T23:50:44.631Z,58.50
2023-02-09T23:53:48.283Z,58.50
2023-02-09T23:56:52.117Z,58.60
2023-02-09T23:59:54.290Z,59.20
